KCOU/COU METAR and TAF weather

Enter ICAO airport designator
Station Type Date Time Source
KCOU METAR 2019/06/26 18:54 UTC NOAA

KCOU 261854Z 26007KT 10SM CLR 31/21 A3009 RMK AO2 SLP180 T03060206


Station Type Date Time Source
KCOU Decoded METAR 2019/06/26 18:54 UTC NOAA

COLUMBIA REGIONAL AIRPORT, MO, United States (KCOU) 38-49N 092-13W 271M
Jun 26, 2019 - 02:54 PM EDT / 2019.06.26 1854 UTC
Wind: from the W (260 degrees) at 8 MPH (7 KT):0
Visibility: 10 mile(s):0
Sky conditions: clear
Temperature: 87.1 F (30.6 C)
Dew Point: 69.1 F (20.6 C)
Relative Humidity: 55%
Pressure (altimeter): 30.09 in. Hg (1018 hPa)
ob: KCOU 261854Z 26007KT 10SM CLR 31/21 A3009 RMK AO2 SLP180 T03060206
cycle: 19

Station Type Date Time Source
KCOU TAF 2019/06/26 18:22 UTC NOAA

TAF KCOU 261720Z 2618/2718 VRB05KT P6SM SCT040 SCT120
FM262000 21008KT P6SM SCT040 BKN120
FM270100 VRB04KT P6SM SCT250
FM271500 21007KT P6SM SCT100

Example: see airport list